Time;durP1;ratioP1;P1;durP2;ratioP2;P2;SDS_P1;SDS_P2;PMS_P1;PMS_P2;Temp;Humidity;BMP_temperature;BMP_pressure;BME280_temperature;BME280_humidity;BME280_pressure;Samples;Min_cycle;Max_cycle;Signal;HPM_P1;HPM_P2
2022/05/24 00:00:48;;;;;;;5.45;2.70;;;;;16.90;95333.00;;;;8308260;28;20236;-74
2022/05/24 00:04:51;;;;;;;7.45;2.95;;;;;16.90;95332.00;;;;8318341;28;20670;-75
2022/05/24 00:08:55;;;;;;;6.03;2.65;;;;;16.90;95324.00;;;;8316264;28;20320;-75
2022/05/24 00:13:04;;;;;;;5.22;2.50;;;;;16.90;95325.00;;;;8315539;28;20221;-77
2022/05/24 00:17:09;;;;;;;4.63;2.53;;;;;16.90;95315.00;;;;8314079;28;20304;-77
2022/05/24 00:21:12;;;;;;;2.95;2.58;;;;;16.90;95314.00;;;;8313260;28;20225;-78
2022/05/24 00:25:15;;;;;;;6.57;2.88;;;;;16.90;95313.00;;;;8306827;28;20233;-77
2022/05/24 00:29:19;;;;;;;7.30;2.75;;;;;16.90;95320.00;;;;8315513;28;20229;-77
2022/05/24 00:33:23;;;;;;;4.78;3.35;;;;;17.00;95322.00;;;;8307218;28;20312;-77
2022/05/24 00:37:29;;;;;;;5.68;2.90;;;;;17.00;95323.00;;;;8312974;28;21028;-77
2022/05/24 00:41:42;;;;;;;6.93;2.90;;;;;17.00;95321.00;;;;8316096;28;20247;-77
2022/05/24 00:45:50;;;;;;;7.68;2.88;;;;;17.00;95317.00;;;;8316592;28;20241;-75
2022/05/24 00:49:59;;;;;;;10.18;2.97;;;;;17.10;95317.00;;;;8303042;28;20300;-76
2022/05/24 00:54:02;;;;;;;5.95;3.60;;;;;17.10;95315.00;;;;8307924;28;20615;-76
2022/05/24 00:58:12;;;;;;;4.72;3.20;;;;;17.10;95319.00;;;;8302191;28;20708;-77
2022/05/24 01:02:15;;;;;;;7.70;3.80;;;;;17.10;95322.00;;;;8312538;28;20256;-77
2022/05/24 01:06:20;;;;;;;7.07;3.45;;;;;17.10;95320.00;;;;8304529;28;20229;-75
2022/05/24 01:10:27;;;;;;;7.43;3.28;;;;;17.10;95315.00;;;;8298211;28;20344;-75
2022/05/24 01:14:31;;;;;;;7.55;3.03;;;;;17.10;95330.00;;;;8308743;28;20229;-75
2022/05/24 01:18:35;;;;;;;8.10;3.28;;;;;17.10;95326.00;;;;8310237;28;20313;-75
2022/05/24 01:23:27;;;;;;;6.40;3.22;;;;;17.10;95314.00;;;;8308226;28;20321;-76
2022/05/24 01:27:32;;;;;;;6.40;3.05;;;;;17.10;95311.00;;;;8311037;28;20248;-76
2022/05/24 01:36:12;;;;;;;7.22;3.15;;;;;17.00;95318.00;;;;8308546;28;20229;-78
2022/05/24 01:40:16;;;;;;;6.82;3.10;;;;;17.00;95307.00;;;;8295412;28;20666;-77
2022/05/24 01:44:26;;;;;;;8.18;3.38;;;;;17.00;95308.00;;;;8308996;28;20722;-76
2022/05/24 01:48:34;;;;;;;4.82;2.83;;;;;16.90;95313.00;;;;8306233;28;20628;-77
2022/05/24 01:52:39;;;;;;;7.97;3.55;;;;;16.90;95322.00;;;;8311691;28;20895;-77
2022/05/24 01:56:47;;;;;;;7.60;2.92;;;;;16.90;95320.00;;;;8306011;28;20320;-77
2022/05/24 02:00:56;;;;;;;4.70;3.42;;;;;16.90;95326.00;;;;8310729;28;20379;-78
2022/05/24 02:04:59;;;;;;;8.50;3.22;;;;;17.00;95327.00;;;;8306722;28;20236;-78
2022/05/24 02:09:03;;;;;;;7.18;3.55;;;;;17.00;95308.00;;;;8298599;28;20268;-76
2022/05/24 02:13:07;;;;;;;6.55;3.20;;;;;17.00;95307.00;;;;8309954;28;21452;-77
2022/05/24 02:17:16;;;;;;;8.20;3.58;;;;;17.00;95289.00;;;;8313839;28;20746;-77
2022/05/24 02:21:21;;;;;;;6.97;3.40;;;;;17.00;95300.00;;;;8307043;28;20259;-76
2022/05/24 02:25:29;;;;;;;5.45;3.17;;;;;17.00;95291.00;;;;8309805;28;20308;-76
2022/05/24 02:29:32;;;;;;;13.18;3.60;;;;;17.00;95298.00;;;;8311875;28;20308;-76
2022/05/24 02:33:37;;;;;;;6.03;3.55;;;;;17.00;95293.00;;;;8312811;28;20229;-76
2022/05/24 02:37:41;;;;;;;6.25;3.10;;;;;16.90;95293.00;;;;8292281;28;20748;-76
2022/05/24 02:41:44;;;;;;;6.53;3.22;;;;;16.80;95293.00;;;;8297254;28;20632;-75
2022/05/24 02:45:47;;;;;;;6.00;3.33;;;;;16.60;95298.00;;;;8304867;28;20679;-74
2022/05/24 02:49:52;;;;;;;14.20;3.90;;;;;16.50;95292.00;;;;8314011;28;20264;-74
2022/05/24 02:53:55;;;;;;;8.55;3.85;;;;;16.40;95298.00;;;;8310223;28;20304;-75
2022/05/24 02:57:59;;;;;;;4.75;3.45;;;;;16.30;95293.00;;;;8318945;28;21020;-75
2022/05/24 03:02:05;;;;;;;10.75;3.72;;;;;16.30;95297.00;;;;8352496;22;20866;-74
2022/05/24 03:06:10;;;;;;;7.75;3.80;;;;;16.20;95295.00;;;;8381751;28;20219;-74
2022/05/24 03:10:13;;;;;;;8.35;3.70;;;;;16.20;95292.00;;;;8383121;28;20241;-75
2022/05/24 03:14:16;;;;;;;9.40;4.32;;;;;16.10;95293.00;;;;8380292;28;20316;-75
2022/05/24 03:18:21;;;;;;;9.98;3.83;;;;;16.20;95297.00;;;;8381480;28;20307;-75
2022/05/24 03:22:26;;;;;;;17.08;4.65;;;;;16.20;95294.00;;;;8384432;28;20219;-75
2022/05/24 03:26:29;;;;;;;15.00;4.78;;;;;16.30;95290.00;;;;8390115;28;20277;-75
2022/05/24 03:30:34;;;;;;;7.70;4.70;;;;;16.40;95283.00;;;;8385322;28;20232;-75
2022/05/24 03:34:38;;;;;;;11.43;5.10;;;;;16.40;95287.00;;;;8379386;28;20310;-74
2022/05/24 03:38:43;;;;;;;10.65;5.63;;;;;16.50;95275.00;;;;8388845;28;20243;-75
2022/05/24 03:42:47;;;;;;;9.38;4.60;;;;;16.60;95291.00;;;;8372372;28;20241;-77
2022/05/24 03:46:50;;;;;;;6.15;4.38;;;;;16.60;95289.00;;;;8377831;28;20270;-76
2022/05/24 03:50:54;;;;;;;12.70;5.50;;;;;16.70;95297.00;;;;8390992;28;20227;-76
2022/05/24 03:55:00;;;;;;;12.77;5.63;;;;;16.80;95301.00;;;;8371936;28;20611;-76
2022/05/24 03:59:04;;;;;;;18.48;6.22;;;;;16.80;95308.00;;;;8356639;28;20216;-77
2022/05/24 04:03:09;;;;;;;10.38;6.20;;;;;16.90;95301.00;;;;8371237;28;20232;-78
2022/05/24 04:07:18;;;;;;;17.15;6.70;;;;;16.90;95304.00;;;;8363185;28;20940;-76
2022/05/24 04:11:23;;;;;;;12.30;6.15;;;;;17.00;95303.00;;;;8375461;28;20353;-75
2022/05/24 04:15:30;;;;;;;17.63;11.43;;;;;17.10;95300.00;;;;8384798;28;20230;-74
2022/05/24 04:19:33;;;;;;;12.20;6.60;;;;;17.20;95293.00;;;;8375208;28;20293;-76
2022/05/24 04:23:36;;;;;;;11.25;5.93;;;;;17.40;95291.00;;;;8366485;28;20235;-77
2022/05/24 04:27:41;;;;;;;12.48;6.18;;;;;17.60;95293.00;;;;8344288;28;20290;-77
2022/05/24 04:31:45;;;;;;;11.10;5.80;;;;;17.60;95305.00;;;;8370937;28;20886;-77
2022/05/24 04:35:48;;;;;;;9.88;5.60;;;;;17.60;95304.00;;;;8380582;28;20281;-82
2022/05/24 04:39:52;;;;;;;10.38;5.97;;;;;17.70;95312.00;;;;8380976;28;20222;-81
2022/05/24 04:43:56;;;;;;;11.05;6.13;;;;;17.70;95319.00;;;;8377967;28;20242;-83
2022/05/24 04:47:59;;;;;;;15.18;6.55;;;;;17.70;95326.00;;;;8376461;28;20232;-78
2022/05/24 04:52:03;;;;;;;10.55;6.22;;;;;17.80;95308.00;;;;8372094;28;20648;-79
2022/05/24 04:56:07;;;;;;;10.45;6.45;;;;;17.90;95314.00;;;;8376135;28;20243;-79
2022/05/24 05:00:14;;;;;;;8.95;5.90;;;;;17.90;95311.00;;;;8383440;28;20266;-80
2022/05/24 05:04:18;;;;;;;14.60;6.28;;;;;18.00;95319.00;;;;8330818;28;20266;-80
2022/05/24 05:08:24;;;;;;;12.07;6.22;;;;;18.20;95330.00;;;;8361977;28;20228;-69
2022/05/24 05:12:27;;;;;;;12.75;6.63;;;;;18.30;95334.00;;;;8362462;28;20232;-73
2022/05/24 05:16:32;;;;;;;9.18;6.15;;;;;18.50;95336.00;;;;8375293;28;20315;-67
2022/05/24 05:20:39;;;;;;;8.40;5.55;;;;;18.70;95346.00;;;;8362835;28;20223;-69
2022/05/24 05:24:42;;;;;;;9.57;5.30;;;;;18.70;95347.00;;;;8374265;28;20739;-69
2022/05/24 05:28:45;;;;;;;7.70;5.70;;;;;18.80;95352.00;;;;8367817;28;20716;-70
2022/05/24 05:32:50;;;;;;;8.18;5.72;;;;;18.70;95353.00;;;;8369624;28;20323;-70
2022/05/24 05:36:54;;;;;;;7.00;5.68;;;;;18.70;95361.00;;;;8359670;28;20306;-69
2022/05/24 05:40:58;;;;;;;10.40;6.35;;;;;18.60;95357.00;;;;8357175;28;20339;-69
2022/05/24 05:45:01;;;;;;;9.98;6.03;;;;;18.60;95345.00;;;;8361465;28;20353;-69
2022/05/24 05:49:06;;;;;;;12.45;6.25;;;;;18.70;95331.00;;;;8357285;28;20302;-69
2022/05/24 05:53:09;;;;;;;12.73;5.38;;;;;18.70;95345.00;;;;8365877;28;20239;-69
2022/05/24 05:57:13;;;;;;;11.35;5.20;;;;;18.70;95343.00;;;;8362798;28;20220;-70
2022/05/24 06:01:17;;;;;;;7.97;4.80;;;;;18.70;95354.00;;;;8374372;28;20318;-75
2022/05/24 06:05:22;;;;;;;12.50;4.53;;;;;18.70;95354.00;;;;8367528;28;21025;-75
2022/05/24 06:09:26;;;;;;;11.40;4.70;;;;;18.80;95357.00;;;;8359639;28;20668;-75
2022/05/24 06:13:29;;;;;;;6.80;5.13;;;;;18.80;95369.00;;;;8369624;28;20238;-74
2022/05/24 06:17:32;;;;;;;7.55;5.45;;;;;19.00;95362.00;;;;8363728;28;20334;-74
2022/05/24 06:21:37;;;;;;;7.85;5.25;;;;;19.10;95367.00;;;;8357577;28;20764;-75
2022/05/24 06:25:42;;;;;;;8.57;4.95;;;;;19.20;95371.00;;;;8356709;28;20656;-75
2022/05/24 06:29:45;;;;;;;8.68;4.95;;;;;19.30;95369.00;;;;8374694;28;20238;-74
2022/05/24 06:33:48;;;;;;;7.38;5.35;;;;;19.40;95374.00;;;;8366397;28;20231;-74
2022/05/24 06:37:54;;;;;;;7.00;5.32;;;;;19.40;95382.00;;;;8373476;28;20319;-74
2022/05/24 06:41:59;;;;;;;5.43;4.80;;;;;19.40;95387.00;;;;8367866;28;20311;-74
2022/05/24 06:46:07;;;;;;;6.90;4.57;;;;;19.30;95390.00;;;;8357219;28;20255;-76
2022/05/24 06:50:12;;;;;;;6.55;4.65;;;;;19.40;95378.00;;;;8351927;28;20232;-75
2022/05/24 06:54:17;;;;;;;7.47;5.68;;;;;19.40;95378.00;;;;8371012;28;20238;-74
2022/05/24 06:58:20;;;;;;;7.97;5.47;;;;;19.40;95394.00;;;;8369354;28;20242;-74
2022/05/24 07:02:25;;;;;;;7.18;5.22;;;;;19.40;95405.00;;;;8368155;28;20255;-74
2022/05/24 07:06:28;;;;;;;8.70;4.35;;;;;19.40;95411.00;;;;8361969;28;20267;-75
2022/05/24 07:10:35;;;;;;;5.28;4.10;;;;;19.20;95425.00;;;;8362254;28;20306;-74
2022/05/24 07:14:38;;;;;;;7.40;4.45;;;;;18.70;95425.00;;;;8364180;28;20691;-68
2022/05/24 07:18:41;;;;;;;6.78;4.65;;;;;18.40;95431.00;;;;8355592;28;20236;-67
2022/05/24 07:22:45;;;;;;;5.47;4.53;;;;;18.20;95438.00;;;;8368670;28;20224;-66
2022/05/24 07:26:49;;;;;;;6.45;4.05;;;;;18.30;95436.00;;;;8366503;28;20236;-67
2022/05/24 07:30:57;;;;;;;4.95;4.45;;;;;18.30;95442.00;;;;8360233;28;20310;-66
2022/05/24 07:35:00;;;;;;;4.97;4.20;;;;;18.20;95448.00;;;;8366741;28;20256;-67
2022/05/24 07:39:04;;;;;;;6.07;4.45;;;;;18.20;95451.00;;;;8365041;28;20227;-66
2022/05/24 07:47:30;;;;;;;6.53;4.20;;;;;18.00;95445.00;;;;8371843;28;20277;-69
2022/05/24 07:51:33;;;;;;;6.38;4.38;;;;;18.10;95450.00;;;;8366287;28;20225;-64
2022/05/24 07:55:37;;;;;;;6.20;4.78;;;;;18.30;95452.00;;;;8363314;28;20255;-64
2022/05/24 07:59:47;;;;;;;5.45;4.47;;;;;18.50;95463.00;;;;8377395;28;20239;-67
2022/05/24 08:03:51;;;;;;;7.68;4.80;;;;;18.40;95465.00;;;;8366568;28;20236;-65
2022/05/24 08:07:55;;;;;;;5.88;5.05;;;;;18.30;95452.00;;;;8367680;28;20236;-64
2022/05/24 08:11:58;;;;;;;11.82;5.25;;;;;18.20;95469.00;;;;8368804;28;20695;-63
2022/05/24 08:16:04;;;;;;;6.28;5.03;;;;;18.20;95478.00;;;;8367239;28;20263;-63
2022/05/24 08:20:10;;;;;;;6.05;4.57;;;;;18.20;95484.00;;;;8369480;28;20530;-65
2022/05/24 08:24:13;;;;;;;9.15;5.18;;;;;18.10;95491.00;;;;8365236;28;20339;-64
2022/05/24 08:33:41;;;;;;;7.45;5.55;;;;;18.20;95507.00;;;;8354323;28;20227;-67
2022/05/24 08:37:45;;;;;;;6.38;5.70;;;;;18.20;95508.00;;;;8371930;28;21006;-65
2022/05/24 08:42:05;;;;;;;6.75;6.07;;;;;18.20;95515.00;;;;8372823;28;20226;-64
2022/05/24 08:50:37;;;;;;;9.77;6.65;;;;;17.70;95526.00;;;;8379116;28;20225;-65
2022/05/24 08:54:43;;;;;;;8.20;6.47;;;;;17.60;95537.00;;;;8380860;28;20308;-63
2022/05/24 08:58:50;;;;;;;9.20;5.97;;;;;17.50;95541.00;;;;8378026;28;20280;-64
2022/05/24 09:02:58;;;;;;;17.40;6.90;;;;;17.40;95537.00;;;;8355950;28;20236;-64
2022/05/24 09:07:07;;;;;;;9.93;6.60;;;;;17.40;95550.00;;;;8345166;28;20232;-63
2022/05/24 09:11:18;;;;;;;9.73;6.70;;;;;17.20;95554.00;;;;8352670;28;20739;-63
2022/05/24 09:15:27;;;;;;;10.65;7.20;;;;;17.10;95556.00;;;;8351517;28;20229;-63
2022/05/24 09:19:35;;;;;;;13.77;8.13;;;;;17.20;95557.00;;;;8356283;28;20311;-62
2022/05/24 09:23:45;;;;;;;14.73;8.73;;;;;17.40;95549.00;;;;8361564;28;20234;-63
2022/05/24 09:27:51;;;;;;;16.35;8.70;;;;;17.60;95541.00;;;;8353039;28;20228;-65
2022/05/24 09:31:57;;;;;;;16.33;8.63;;;;;17.60;95543.00;;;;8359086;28;20302;-61
2022/05/24 09:36:01;;;;;;;11.75;7.00;;;;;17.70;95552.00;;;;8349583;28;20232;-62
2022/05/24 09:40:17;;;;;;;11.73;5.90;;;;;17.50;95562.00;;;;8344100;28;20307;-62
2022/05/24 09:44:20;;;;;;;9.52;6.63;;;;;17.50;95544.00;;;;8387988;28;20307;-62
2022/05/24 09:48:26;;;;;;;11.02;6.07;;;;;17.70;95555.00;;;;8402822;28;20242;-61
2022/05/24 09:52:29;;;;;;;11.25;6.80;;;;;17.90;95538.00;;;;8387055;28;20588;-65
2022/05/24 09:56:34;;;;;;;11.40;5.97;;;;;18.10;95545.00;;;;8393787;28;20243;-65
2022/05/24 10:00:48;;;;;;;7.72;5.95;;;;;18.00;95544.00;;;;8384117;28;20233;-64
2022/05/24 10:04:51;;;;;;;9.65;5.72;;;;;18.10;95546.00;;;;8383166;28;20312;-67
2022/05/24 10:09:04;;;;;;;6.22;5.35;;;;;18.40;95571.00;;;;8382938;28;20262;-65
2022/05/24 10:13:18;;;;;;;8.00;5.35;;;;;18.20;95594.00;;;;8382089;28;20238;-64
2022/05/24 10:17:39;;;;;;;8.48;5.57;;;;;18.00;95601.00;;;;8390393;28;20331;-62
2022/05/24 10:21:50;;;;;;;6.50;4.82;;;;;17.90;95607.00;;;;8385268;28;20310;-62
2022/05/24 10:26:01;;;;;;;7.07;4.13;;;;;17.70;95602.00;;;;8392531;28;20238;-63
2022/05/24 10:30:09;;;;;;;4.60;3.88;;;;;17.50;95605.00;;;;8370135;28;20557;-61
2022/05/24 10:39:22;;;;;;;7.57;4.68;;;;;17.40;95608.00;;;;8366440;28;20253;-62
2022/05/24 10:43:39;;;;;;;7.50;3.90;;;;;17.30;95611.00;;;;8373271;28;20251;-64
2022/05/24 10:47:50;;;;;;;4.28;3.85;;;;;17.20;95679.00;;;;8369617;28;20251;-63
2022/05/24 10:52:00;;;;;;;2.15;1.58;;;;;16.40;95675.00;;;;8369384;28;20511;-64
2022/05/24 10:56:06;;;;;;;4.10;1.30;;;;;15.40;95675.00;;;;8369772;28;20231;-64
2022/05/24 11:00:14;;;;;;;7.68;1.40;;;;;15.00;95677.00;;;;8370115;28;20243;-64
2022/05/24 11:04:24;;;;;;;0.93;0.93;;;;;14.80;95686.00;;;;8342342;28;20264;-63
2022/05/24 11:08:36;;;;;;;1.90;1.10;;;;;14.60;95670.00;;;;8346129;28;20221;-63
2022/05/24 11:12:44;;;;;;;4.40;1.30;;;;;14.50;95678.00;;;;8334672;28;20239;-63
2022/05/24 11:16:50;;;;;;;5.07;1.23;;;;;14.60;95673.00;;;;8345899;28;20622;-63
2022/05/24 11:21:00;;;;;;;1.10;0.90;;;;;14.90;95665.00;;;;8343523;28;20752;-65
2022/05/24 11:25:08;;;;;;;1.10;1.10;;;;;15.30;95665.00;;;;8351791;28;20694;-65
2022/05/24 11:29:16;;;;;;;2.55;1.10;;;;;15.50;95675.00;;;;8377603;28;20224;-65
2022/05/24 11:33:35;;;;;;;3.67;0.98;;;;;15.60;95675.00;;;;8362087;28;20638;-65
2022/05/24 11:37:42;;;;;;;1.13;1.10;;;;;15.60;95657.00;;;;8360063;28;20228;-65
2022/05/24 11:41:45;;;;;;;1.20;1.20;;;;;15.60;95647.00;;;;8366849;28;20228;-67
2022/05/24 11:45:56;;;;;;;1.00;1.00;;;;;15.60;95644.00;;;;8347286;28;20278;-65
2022/05/24 11:50:01;;;;;;;1.50;1.13;;;;;15.60;95625.00;;;;8409061;28;20243;-66
2022/05/24 11:54:08;;;;;;;1.45;1.40;;;;;15.70;95645.00;;;;8410840;28;20584;-64
2022/05/24 11:58:47;;;;;;;1.40;1.30;;;;;16.50;95650.00;;;;8347197;28;20232;-65
2022/05/24 12:12:17;;;;;;;2.22;1.60;;;;;18.90;95670.00;;;;8376914;28;20235;-67
2022/05/24 12:16:39;;;;;;;1.73;1.40;;;;;19.70;95674.00;;;;8412247;28;20254;-68
2022/05/24 12:20:59;;;;;;;1.50;1.50;;;;;20.10;95676.00;;;;8410585;28;20705;-67
2022/05/24 12:25:04;;;;;;;1.60;1.50;;;;;19.60;95682.00;;;;8420089;28;20219;-68
2022/05/24 12:29:11;;;;;;;1.40;1.30;;;;;19.30;95690.00;;;;8417072;28;20311;-68
2022/05/24 12:33:22;;;;;;;2.78;1.65;;;;;19.20;95691.00;;;;8423523;28;20302;-68
2022/05/24 12:37:29;;;;;;;2.40;1.58;;;;;19.40;95698.00;;;;8411570;28;20234;-68
2022/05/24 12:41:36;;;;;;;2.42;1.58;;;;;19.70;95707.00;;;;8416246;28;20227;-66
2022/05/24 12:45:43;;;;;;;1.63;1.52;;;;;19.90;95732.00;;;;8409170;28;20250;-67
2022/05/24 12:49:55;;;;;;;1.63;1.40;;;;;19.70;95743.00;;;;8411706;28;20230;-66
2022/05/24 12:54:10;;;;;;;2.35;1.50;;;;;19.60;95738.00;;;;8416735;28;20233;-65
2022/05/24 12:58:23;;;;;;;1.55;1.23;;;;;20.10;95731.00;;;;8421897;28;20317;-66
2022/05/24 13:02:38;;;;;;;1.95;1.60;;;;;20.40;95738.00;;;;8410965;28;20226;-66
2022/05/24 13:06:44;;;;;;;1.20;1.20;;;;;20.60;95741.00;;;;8361092;28;20634;-66
2022/05/24 13:10:48;;;;;;;1.40;1.40;;;;;20.30;95736.00;;;;8383210;28;20327;-66
2022/05/24 13:14:57;;;;;;;1.45;1.35;;;;;19.90;95719.00;;;;8383078;28;20262;-66
2022/05/24 13:19:04;;;;;;;4.18;1.50;;;;;20.10;95726.00;;;;8384191;28;20564;-66
2022/05/24 13:23:19;;;;;;;1.30;1.30;;;;;20.70;95721.00;;;;8383741;28;20226;-67
2022/05/24 13:27:23;;;;;;;2.03;1.42;;;;;21.00;95725.00;;;;8366762;28;20326;-64
2022/05/24 13:35:51;;;;;;;1.52;1.30;;;;;20.60;95730.00;;;;8375217;28;20231;-67
2022/05/24 13:39:54;;;;;;;1.70;1.45;;;;;20.40;95746.00;;;;8390154;28;20310;-64
2022/05/24 13:44:24;;;;;;;1.13;1.10;;;;;20.40;95741.00;;;;8398129;28;20314;-65
2022/05/24 13:48:28;;;;;;;3.53;1.25;;;;;20.20;95742.00;;;;8354875;28;20235;-66
2022/05/24 13:52:38;;;;;;;1.63;1.50;;;;;20.20;95741.00;;;;8373822;28;20238;-66
2022/05/24 13:56:48;;;;;;;4.40;1.40;;;;;20.10;95729.00;;;;8397009;28;20260;-65
2022/05/24 14:01:00;;;;;;;1.45;1.33;;;;;19.90;95733.00;;;;8381928;28;20255;-65
2022/05/24 14:05:04;;;;;;;2.80;1.52;;;;;19.70;95741.00;;;;8412936;28;20235;-66
2022/05/24 14:09:09;;;;;;;3.38;1.50;;;;;19.50;95729.00;;;;8406461;28;20235;-67
2022/05/24 14:13:12;;;;;;;1.55;1.45;;;;;19.20;95719.00;;;;8415980;28;20653;-68
2022/05/24 14:17:16;;;;;;;1.40;1.30;;;;;19.10;95718.00;;;;8415238;28;20227;-65
2022/05/24 14:21:24;;;;;;;2.58;1.58;;;;;18.90;95726.00;;;;8409832;28;20243;-64
2022/05/24 14:25:30;;;;;;;2.35;1.30;;;;;18.90;95716.00;;;;8414764;28;21164;-64
2022/05/24 14:29:34;;;;;;;1.65;1.55;;;;;19.40;95728.00;;;;8417087;28;20258;-65
2022/05/24 14:33:38;;;;;;;1.50;1.40;;;;;19.40;95733.00;;;;8395082;28;20230;-66
2022/05/24 14:37:41;;;;;;;1.55;1.45;;;;;19.80;95732.00;;;;8397092;28;20238;-66
2022/05/24 14:41:47;;;;;;;3.28;1.80;;;;;20.10;95732.00;;;;8414129;28;20234;-69
2022/05/24 14:45:50;;;;;;;3.00;1.40;;;;;20.50;95729.00;;;;8403957;28;20268;-69
2022/05/24 14:49:53;;;;;;;1.10;1.10;;;;;20.60;95733.00;;;;8423237;28;20313;-69
2022/05/24 14:53:58;;;;;;;1.48;1.30;;;;;20.70;95741.00;;;;8410398;28;20250;-69
2022/05/24 14:58:12;;;;;;;1.80;1.20;;;;;21.20;95742.00;;;;8405809;28;20230;-67
2022/05/24 15:02:15;;;;;;;1.10;1.10;;;;;21.90;95745.00;;;;8425129;28;20227;-70
2022/05/24 15:06:19;;;;;;;1.85;1.23;;;;;22.50;95744.00;;;;8429479;28;20252;-69
2022/05/24 15:19:05;;;;;;;1.38;1.30;;;;;23.60;95741.00;;;;8425405;28;20778;-69
2022/05/24 15:23:13;;;;;;;2.05;1.20;;;;;23.70;95729.00;;;;8408092;28;20226;-69
2022/05/24 15:27:17;;;;;;;1.70;1.30;;;;;23.80;95731.00;;;;8423616;28;20857;-70
2022/05/24 15:31:21;;;;;;;1.95;1.20;;;;;24.10;95737.00;;;;8412065;28;20719;-69
2022/05/24 15:35:24;;;;;;;1.10;1.10;;;;;23.90;95744.00;;;;8421404;28;20692;-70
2022/05/24 15:39:28;;;;;;;1.92;1.23;;;;;23.50;95739.00;;;;8420567;28;20330;-70
2022/05/24 15:43:31;;;;;;;1.20;1.20;;;;;23.50;95742.00;;;;8419214;28;20227;-69
2022/05/24 15:47:36;;;;;;;2.70;1.17;;;;;23.40;95732.00;;;;8418424;28;20241;-71
2022/05/24 15:51:44;;;;;;;1.33;1.20;;;;;23.40;95742.00;;;;8418370;28;20223;-70
2022/05/24 15:55:48;;;;;;;2.95;1.15;;;;;23.40;95744.00;;;;8420863;28;20899;-71
2022/05/24 15:59:51;;;;;;;1.52;1.20;;;;;23.00;95746.00;;;;8420055;28;20230;-70
2022/05/24 16:03:56;;;;;;;1.33;1.23;;;;;22.80;95756.00;;;;8422204;28;20239;-70
2022/05/24 16:12:19;;;;;;;2.20;1.30;;;;;22.10;95773.00;;;;8411637;28;20313;-70
2022/05/24 16:16:25;;;;;;;3.28;1.30;;;;;21.80;95775.00;;;;8417807;28;20231;-70
2022/05/24 16:20:29;;;;;;;2.63;1.30;;;;;21.60;95781.00;;;;8420400;28;20266;-75
2022/05/24 16:24:34;;;;;;;1.33;1.20;;;;;21.50;95772.00;;;;8417777;28;20235;-72
2022/05/24 16:28:37;;;;;;;1.30;1.30;;;;;21.50;95778.00;;;;8414727;28;20235;-71
2022/05/24 16:32:40;;;;;;;4.78;1.23;;;;;21.40;95775.00;;;;8413681;28;20304;-72
2022/05/24 16:36:45;;;;;;;3.17;1.20;;;;;21.30;95783.00;;;;8424968;28;20688;-70
2022/05/24 16:40:48;;;;;;;1.85;1.20;;;;;21.30;95780.00;;;;8404467;28;20231;-71
2022/05/24 16:44:51;;;;;;;3.75;1.20;;;;;21.20;95779.00;;;;8416499;28;20222;-69
2022/05/24 16:48:55;;;;;;;3.13;1.58;;;;;21.10;95780.00;;;;8418003;28;20223;-70
2022/05/24 16:53:27;;;;;;;1.10;1.10;;;;;21.00;95777.00;;;;8417361;28;20227;-71
2022/05/24 17:01:52;;;;;;;1.52;1.30;;;;;20.80;95783.00;;;;8403287;28;20318;-72
2022/05/24 17:05:55;;;;;;;1.40;1.40;;;;;20.60;95789.00;;;;8406726;28;20228;-71
2022/05/24 17:10:00;;;;;;;4.88;1.33;;;;;20.60;95781.00;;;;8423371;28;20771;-70
2022/05/24 17:14:03;;;;;;;2.75;1.30;;;;;20.50;95786.00;;;;8421050;28;20294;-72
2022/05/24 17:18:07;;;;;;;4.35;1.40;;;;;20.50;95787.00;;;;8418240;28;20335;-70
2022/05/24 17:22:10;;;;;;;4.28;1.33;;;;;20.40;95790.00;;;;8410828;28;20695;-71
2022/05/24 17:26:15;;;;;;;1.73;1.42;;;;;20.40;95802.00;;;;8405336;28;20309;-72
2022/05/24 17:30:23;;;;;;;1.50;1.40;;;;;20.10;95814.00;;;;8420879;28;20238;-71
2022/05/24 17:34:26;;;;;;;1.20;1.20;;;;;20.00;95827.00;;;;8418186;28;20248;-72
2022/05/24 17:38:31;;;;;;;6.38;1.52;;;;;19.70;95832.00;;;;8411731;28;20234;-72
2022/05/24 17:42:39;;;;;;;1.30;1.30;;;;;19.60;95834.00;;;;8418706;28;20561;-72
2022/05/24 17:46:42;;;;;;;4.47;1.50;;;;;19.50;95842.00;;;;8412169;28;20235;-73
2022/05/24 17:51:01;;;;;;;1.50;1.40;;;;;19.40;95841.00;;;;8418149;28;21121;-72
2022/05/24 17:55:05;;;;;;;1.50;1.40;;;;;19.30;95836.00;;;;8416580;28;20694;-72
2022/05/24 17:59:09;;;;;;;1.55;1.42;;;;;19.20;95854.00;;;;8416702;28;20225;-71
2022/05/24 18:03:13;;;;;;;2.05;1.30;;;;;19.10;95854.00;;;;8410848;28;20932;-72
2022/05/24 18:07:17;;;;;;;3.20;1.40;;;;;18.90;95850.00;;;;8407289;28;20231;-71
2022/05/24 18:11:20;;;;;;;3.47;1.60;;;;;18.60;95848.00;;;;8400196;28;20223;-70
2022/05/24 18:15:25;;;;;;;1.73;1.67;;;;;18.30;95845.00;;;;8403521;28;20228;-70
2022/05/24 18:19:28;;;;;;;3.92;1.50;;;;;18.20;95849.00;;;;8407189;28;20227;-69
2022/05/24 18:23:34;;;;;;;1.98;1.63;;;;;18.10;95857.00;;;;8405774;28;20234;-70
2022/05/24 18:36:26;;;;;;;4.95;1.70;;;;;18.10;95836.00;;;;8409401;28;20226;-72
2022/05/24 18:40:29;;;;;;;4.55;1.70;;;;;18.00;95841.00;;;;8398280;28;20223;-71
2022/05/24 18:44:32;;;;;;;1.90;1.80;;;;;18.00;95837.00;;;;8405802;28;20224;-71
2022/05/24 18:48:37;;;;;;;1.88;1.77;;;;;18.00;95838.00;;;;8406694;28;20233;-71
2022/05/24 18:52:47;;;;;;;3.08;1.58;;;;;18.00;95842.00;;;;8407024;28;20348;-71
2022/05/24 18:56:53;;;;;;;1.80;1.80;;;;;17.90;95863.00;;;;8403510;28;20712;-72
2022/05/24 19:00:57;;;;;;;1.65;1.58;;;;;17.60;95854.00;;;;8398267;28;20306;-73
2022/05/24 19:05:02;;;;;;;2.55;1.70;;;;;17.50;95862.00;;;;8404592;28;20230;-74
2022/05/24 19:09:06;;;;;;;5.78;2.10;;;;;17.50;95864.00;;;;8409927;28;20298;-72
2022/05/24 19:13:09;;;;;;;3.38;1.80;;;;;17.50;95865.00;;;;8407120;28;20234;-73
2022/05/24 19:17:14;;;;;;;3.30;1.92;;;;;17.40;95880.00;;;;8415267;28;20239;-73
2022/05/24 19:21:19;;;;;;;3.05;2.10;;;;;17.50;95889.00;;;;8414145;28;20695;-69
2022/05/24 19:25:22;;;;;;;3.42;2.40;;;;;17.40;95911.00;;;;8416515;28;20238;-70
2022/05/24 19:29:26;;;;;;;2.33;2.10;;;;;17.40;95928.00;;;;8393072;28;20339;-71
2022/05/24 19:33:30;;;;;;;2.50;2.25;;;;;17.40;95942.00;;;;8413307;28;20219;-70
2022/05/24 19:37:36;;;;;;;2.90;2.20;;;;;17.40;95943.00;;;;8418722;28;20663;-68
2022/05/24 19:41:41;;;;;;;5.90;2.08;;;;;17.30;95941.00;;;;8409609;28;20228;-68
2022/05/24 19:45:49;;;;;;;1.70;1.60;;;;;17.30;95945.00;;;;8416807;28;20242;-69
2022/05/24 19:49:53;;;;;;;2.47;2.00;;;;;17.30;95949.00;;;;8416208;28;20302;-70
2022/05/24 19:53:58;;;;;;;2.00;1.90;;;;;17.20;95959.00;;;;8416139;28;20250;-70
2022/05/24 19:58:02;;;;;;;2.35;2.17;;;;;17.10;95955.00;;;;8410476;28;20223;-71
2022/05/24 20:02:07;;;;;;;4.00;2.20;;;;;17.00;95951.00;;;;8414545;28;20319;-68
2022/05/24 20:06:12;;;;;;;4.65;2.38;;;;;16.80;95955.00;;;;8412650;28;20654;-71
2022/05/24 20:10:18;;;;;;;2.30;2.10;;;;;16.80;95953.00;;;;8409355;28;20277;-70
2022/05/24 20:14:21;;;;;;;2.72;2.03;;;;;16.70;95955.00;;;;8407881;28;20215;-71
2022/05/24 20:18:25;;;;;;;2.72;2.13;;;;;16.60;95954.00;;;;8415692;28;20317;-70
2022/05/24 20:22:28;;;;;;;3.95;2.15;;;;;16.50;95947.00;;;;8415947;28;20228;-69
2022/05/24 20:26:33;;;;;;;4.97;2.25;;;;;16.50;95941.00;;;;8408909;28;20594;-69
2022/05/24 20:30:37;;;;;;;2.95;2.72;;;;;16.40;95940.00;;;;8406568;28;20230;-71
2022/05/24 20:34:40;;;;;;;3.00;2.47;;;;;16.40;95950.00;;;;8415037;28;20245;-70
2022/05/24 20:38:43;;;;;;;3.08;2.35;;;;;16.30;95943.00;;;;8418332;28;20339;-70
2022/05/24 20:42:48;;;;;;;5.13;2.72;;;;;16.30;95940.00;;;;8415800;28;20228;-70
2022/05/24 20:46:51;;;;;;;5.22;2.70;;;;;16.20;95945.00;;;;8413673;28;20231;-72
2022/05/24 20:50:54;;;;;;;6.13;2.80;;;;;16.10;95957.00;;;;8418907;28;20227;-70
2022/05/24 20:54:57;;;;;;;6.40;2.78;;;;;16.10;95955.00;;;;8415117;28;20322;-70
2022/05/24 20:59:02;;;;;;;4.20;2.40;;;;;16.00;95958.00;;;;8422670;28;20342;-69
2022/05/24 21:03:05;;;;;;;2.50;2.40;;;;;16.00;95957.00;;;;8422635;28;20583;-69
2022/05/24 21:07:22;;;;;;;3.10;2.80;;;;;15.90;95967.00;;;;8429832;28;20237;-69
2022/05/24 21:11:25;;;;;;;5.32;3.40;;;;;15.90;95975.00;;;;8417326;28;20219;-69
2022/05/24 21:15:31;;;;;;;6.05;3.25;;;;;15.80;95967.00;;;;8410748;28;20318;-69
2022/05/24 21:19:34;;;;;;;8.60;3.15;;;;;15.80;95970.00;;;;8406984;28;20331;-70
2022/05/24 21:23:39;;;;;;;4.20;3.10;;;;;15.70;95972.00;;;;8416864;28;20662;-69
2022/05/24 21:28:05;;;;;;;9.40;3.67;;;;;15.60;95967.00;;;;8427793;28;20234;-70
2022/05/24 21:32:09;;;;;;;6.07;3.42;;;;;15.50;95976.00;;;;8417367;28;20313;-70